Time;durP1;ratioP1;P1;durP2;ratioP2;P2;SDS_P1;SDS_P2;PMS_P1;PMS_P2;Temp;Humidity;BMP_temperature;BMP_pressure;BME280_temperature;BME280_humidity;BME280_pressure;Samples;Min_cycle;Max_cycle;Signal;HPM_P1;HPM_P2
2022/03/23 00:00:16;;;;;;;46.92;35.30;;;;;;;3.66;88.86;102964.28;1039761;28;20350;-76
2022/03/23 00:00:48;;;;;;;52.85;32.22;;;;;;;3.48;88.07;102963.03;1040207;28;20350;-75
2022/03/23 00:01:21;;;;;;;46.58;36.72;;;;;;;3.42;88.57;102965.19;1043529;28;20291;-76
2022/03/23 00:01:53;;;;;;;47.58;36.45;;;;;;;3.34;88.96;102964.97;1043869;28;20296;-76
2022/03/23 00:02:26;;;;;;;49.22;37.97;;;;;;;3.33;89.14;102963.28;1041433;28;20354;-75
2022/03/23 00:02:58;;;;;;;54.78;36.80;;;;;;;3.29;89.37;102971.53;1043277;28;20353;-75
2022/03/23 00:03:29;;;;;;;53.03;35.45;;;;;;;3.26;89.71;102963.84;1043184;28;20318;-76
2022/03/23 00:04:01;;;;;;;46.30;33.20;;;;;;;3.38;89.67;102962.91;1039288;28;20292;-76
2022/03/23 00:04:33;;;;;;;45.70;33.25;;;;;;;3.44;89.34;102965.09;1039183;28;20308;-75
2022/03/23 00:05:05;;;;;;;52.38;37.47;;;;;;;3.41;89.22;102957.41;1039376;28;20318;-76
2022/03/23 00:05:38;;;;;;;57.83;38.17;;;;;;;3.39;89.39;102964.59;1039643;28;20300;-76
2022/03/23 00:06:12;;;;;;;53.33;37.33;;;;;;;3.34;89.62;102961.47;1040339;28;20307;-75
2022/03/23 00:06:44;;;;;;;54.33;38.85;;;;;;;3.23;89.79;102964.91;1043576;28;20369;-76
2022/03/23 00:07:16;;;;;;;54.22;35.92;;;;;;;3.24;89.93;102966.59;1043397;28;20291;-75
2022/03/23 00:07:49;;;;;;;53.90;37.10;;;;;;;3.21;89.34;102965.97;1043977;28;20760;-75
2022/03/23 00:08:21;;;;;;;53.40;35.10;;;;;;;3.18;89.73;102964.44;1043753;28;20302;-75
2022/03/23 00:08:53;;;;;;;53.30;35.25;;;;;;;3.21;89.96;102966.81;1043451;28;20307;-75
2022/03/23 00:09:26;;;;;;;51.42;34.95;;;;;;;3.14;90.00;102964.78;1044177;28;20782;-76
2022/03/23 00:10:17;;;;;;;55.40;31.48;;;;;;;3.13;89.99;102968.38;1043681;28;20412;-75
2022/03/23 00:10:49;;;;;;;48.30;32.00;;;;;;;3.14;89.90;102970.88;1039604;28;20311;-75
2022/03/23 00:11:21;;;;;;;48.83;34.17;;;;;;;3.16;89.99;102965.50;1039576;28;20292;-75
2022/03/23 00:11:52;;;;;;;41.78;31.10;;;;;;;3.11;89.83;102963.22;1042557;28;20349;-76
2022/03/23 00:12:24;;;;;;;44.95;33.38;;;;;;;3.22;89.90;102965.03;1043572;28;20302;-76
2022/03/23 00:12:58;;;;;;;46.03;33.97;;;;;;;3.35;89.85;102973.69;1043907;28;20358;-76
2022/03/23 00:13:29;;;;;;;44.85;33.85;;;;;;;3.41;89.57;102963.53;1044092;28;20287;-75
2022/03/23 00:14:01;;;;;;;50.65;33.58;;;;;;;3.33;89.10;102971.19;1043684;28;20307;-75
2022/03/23 00:14:33;;;;;;;50.50;36.80;;;;;;;3.31;88.94;102962.56;1043422;28;20315;-76
2022/03/23 00:15:07;;;;;;;49.97;36.45;;;;;;;3.47;88.48;102964.84;1043678;28;20306;-75
2022/03/23 00:15:39;;;;;;;50.92;39.03;;;;;;;3.39;88.27;102964.59;1043572;28;20299;-75
2022/03/23 00:16:10;;;;;;;59.30;38.13;;;;;;;3.40;88.34;102967.13;1043601;28;20783;-76
2022/03/23 00:16:42;;;;;;;44.83;35.88;;;;;;;3.34;88.20;102962.31;1043692;28;20295;-75
2022/03/23 00:17:13;;;;;;;55.38;34.13;;;;;;;3.37;88.23;102962.09;1043862;28;20295;-76
2022/03/23 00:17:46;;;;;;;43.38;33.08;;;;;;;3.34;88.20;102961.47;1043482;28;20311;-76
2022/03/23 00:18:18;;;;;;;49.90;31.48;;;;;;;3.44;88.06;102956.34;1043986;28;20295;-75
2022/03/23 00:18:50;;;;;;;43.83;32.30;;;;;;;3.27;87.78;102961.09;1043685;28;20299;-76
2022/03/23 00:19:21;;;;;;;45.25;30.80;;;;;;;3.35;88.04;102952.63;1043599;28;20310;-75
2022/03/23 00:19:53;;;;;;;37.05;31.05;;;;;;;3.24;87.64;102955.22;1043802;28;20306;-75
2022/03/23 00:20:25;;;;;;;38.70;28.77;;;;;;;3.45;87.58;102961.50;1044225;28;20295;-75
2022/03/23 00:20:56;;;;;;;37.53;27.75;;;;;;;3.32;87.36;102956.34;1043331;28;20795;-76
2022/03/23 00:21:28;;;;;;;43.90;29.15;;;;;;;3.21;87.71;102960.72;1035185;28;20856;-75
2022/03/23 00:22:00;;;;;;;35.92;26.90;;;;;;;3.07;87.80;102967.03;1035483;28;20309;-76
2022/03/23 00:22:32;;;;;;;32.17;23.85;;;;;;;3.00;88.38;102957.91;1035856;28;20311;-75
2022/03/23 00:23:04;;;;;;;36.88;25.50;;;;;;;2.96;88.43;102966.97;1035362;28;20304;-76
2022/03/23 00:23:35;;;;;;;35.42;27.00;;;;;;;3.01;88.61;102963.06;1039646;28;20307;-76
2022/03/23 00:24:07;;;;;;;39.78;27.45;;;;;;;3.04;88.51;102959.38;1039820;28;20300;-75
2022/03/23 00:24:38;;;;;;;29.10;23.90;;;;;;;3.20;88.60;102967.78;1043641;28;20299;-75
2022/03/23 00:25:10;;;;;;;30.63;21.95;;;;;;;3.15;88.58;102955.91;1043669;28;20596;-75
2022/03/23 00:25:42;;;;;;;26.83;22.33;;;;;;;3.20;88.58;102966.94;1043426;28;20310;-75
2022/03/23 00:26:13;;;;;;;25.13;20.48;;;;;;;3.30;88.68;102960.88;1043464;28;20307;-76
2022/03/23 00:26:45;;;;;;;28.73;21.75;;;;;;;3.22;89.31;102963.22;1043538;28;20659;-75
2022/03/23 00:27:17;;;;;;;30.27;22.10;;;;;;;3.13;88.46;102960.47;1039299;28;20295;-76
2022/03/23 00:27:48;;;;;;;34.70;24.30;;;;;;;3.12;88.95;102962.25;1039502;28;20703;-75
2022/03/23 00:28:20;;;;;;;30.15;24.25;;;;;;;3.06;88.67;102962.72;1035331;28;20847;-76
2022/03/23 00:28:51;;;;;;;36.92;25.70;;;;;;;3.03;88.82;102965.59;1036250;28;20299;-76
2022/03/23 00:29:23;;;;;;;36.05;25.50;;;;;;;3.05;89.11;102961.88;1039344;28;20300;-75
2022/03/23 00:29:55;;;;;;;35.15;23.15;;;;;;;3.09;89.27;102962.50;1035945;28;20300;-75
2022/03/23 00:30:28;;;;;;;33.28;24.83;;;;;;;3.05;89.12;102963.69;1039638;28;20300;-75
2022/03/23 00:31:20;;;;;;;;;;;;;;;3.01;89.63;102964.84;1039053;28;20370;-75
2022/03/23 00:31:52;;;;;;;37.35;24.52;;;;;;;2.96;89.63;102964.34;1034667;28;19921;-75
2022/03/23 00:32:24;;;;;;;33.95;21.38;;;;;;;2.94;90.08;102974.16;1027313;28;20333;-76
2022/03/23 00:32:57;;;;;;;44.70;24.20;;;;;;;2.96;90.18;102961.72;1029864;28;20306;-75
2022/03/23 00:33:29;;;;;;;43.90;27.50;;;;;;;2.91;89.91;102961.22;1036096;28;20860;-75
2022/03/23 00:34:01;;;;;;;45.65;26.35;;;;;;;2.93;90.31;102972.47;1039950;28;20509;-75
2022/03/23 00:34:33;;;;;;;33.92;22.92;;;;;;;2.97;90.26;102958.13;1043722;28;20933;-76
2022/03/23 00:35:04;;;;;;;35.35;24.23;;;;;;;2.92;90.55;102976.91;1043123;28;20307;-76
2022/03/23 00:35:36;;;;;;;35.28;25.33;;;;;;;2.93;90.48;102964.56;1039218;28;20664;-76
2022/03/23 00:36:09;;;;;;;43.03;29.98;;;;;;;2.88;90.27;102964.09;1040079;28;20795;-75
2022/03/23 00:36:40;;;;;;;50.83;28.67;;;;;;;2.92;90.14;102968.16;1039394;28;20296;-75
2022/03/23 00:37:12;;;;;;;33.53;24.65;;;;;;;3.05;90.20;102961.03;1039351;28;20316;-75
2022/03/23 00:37:46;;;;;;;35.83;22.85;;;;;;;3.15;89.31;102967.28;1043305;28;20707;-75
2022/03/23 00:38:18;;;;;;;45.70;24.75;;;;;;;3.19;89.33;102968.72;1040280;28;20779;-76
2022/03/23 00:38:50;;;;;;;35.90;24.20;;;;;;;3.19;89.67;102965.25;1043385;28;20632;-76
2022/03/23 00:39:22;;;;;;;36.15;24.08;;;;;;;3.22;89.38;102963.22;1043566;28;20805;-75
2022/03/23 00:39:54;;;;;;;33.67;24.98;;;;;;;3.29;89.52;102956.56;1043218;28;20302;-76
2022/03/23 00:40:30;;;;;;;41.38;26.48;;;;;;;3.26;89.58;102959.41;1043296;28;20393;-75
2022/03/23 00:41:04;;;;;;;31.88;23.15;;;;;;;3.28;89.51;102960.13;1039244;28;20303;-75
2022/03/23 00:41:36;;;;;;;29.38;20.63;;;;;;;3.27;89.35;102963.72;1039388;28;20794;-75
2022/03/23 00:42:07;;;;;;;36.00;23.50;;;;;;;3.17;89.35;102954.84;1040697;28;20307;-75
2022/03/23 00:42:39;;;;;;;35.67;24.40;;;;;;;3.27;89.00;102955.81;1042321;28;20346;-75
2022/03/23 00:43:11;;;;;;;37.95;22.77;;;;;;;3.16;89.13;102953.16;1047597;28;20686;-75
2022/03/23 00:43:43;;;;;;;37.40;26.13;;;;;;;3.18;88.92;102961.78;1039342;28;20308;-76
2022/03/23 00:44:15;;;;;;;33.00;23.63;;;;;;;3.10;88.89;102964.16;1033103;28;20951;-75
2022/03/23 00:44:47;;;;;;;32.45;23.40;;;;;;;3.11;88.99;102955.31;1031117;28;20316;-75
2022/03/23 00:45:20;;;;;;;30.10;23.25;;;;;;;3.08;89.27;102956.38;1032349;28;20309;-75
2022/03/23 00:45:54;;;;;;;27.73;21.10;;;;;;;3.03;88.99;102957.69;1036403;28;20289;-76
2022/03/23 00:46:25;;;;;;;34.85;22.95;;;;;;;3.03;89.50;102957.69;1040445;28;20321;-76
2022/03/23 00:46:58;;;;;;;33.33;23.90;;;;;;;3.00;89.33;102957.91;1035065;28;20308;-76
2022/03/23 00:47:30;;;;;;;33.67;24.85;;;;;;;2.99;89.47;102956.22;1032457;28;20329;-76
2022/03/23 00:48:03;;;;;;;36.75;23.65;;;;;;;2.93;89.57;102957.53;1029140;28;20309;-76
2022/03/23 00:48:35;;;;;;;33.63;24.50;;;;;;;2.91;88.99;102956.78;1027631;28;20301;-76
2022/03/23 00:49:09;;;;;;;36.75;24.45;;;;;;;2.85;89.46;102964.31;1035315;28;20308;-76
2022/03/23 00:49:41;;;;;;;38.10;26.08;;;;;;;2.78;89.88;102954.25;1037051;28;20348;-75
2022/03/23 00:50:12;;;;;;;43.72;26.45;;;;;;;2.76;89.94;102956.16;1040099;28;20307;-76
2022/03/23 00:50:44;;;;;;;37.58;21.70;;;;;;;2.82;90.24;102960.13;1038502;28;20300;-75
2022/03/23 00:51:16;;;;;;;35.15;24.42;;;;;;;2.84;89.59;102960.84;1035950;28;20296;-76
2022/03/23 00:51:53;;;;;;;30.15;23.63;;;;;;;2.86;89.82;102955.47;1039882;28;20299;-76
2022/03/23 00:52:25;;;;;;;29.20;19.88;;;;;;;2.85;89.45;102953.78;1043691;28;20294;-76
2022/03/23 00:52:56;;;;;;;40.13;23.88;;;;;;;2.84;89.88;102957.38;1043403;28;20310;-76
2022/03/23 00:53:31;;;;;;;33.75;24.42;;;;;;;2.88;89.59;102961.44;1043598;28;20295;-75
2022/03/23 00:54:03;;;;;;;37.72;25.08;;;;;;;2.78;89.68;102954.25;1039467;28;20291;-75
2022/03/23 00:54:35;;;;;;;42.63;24.85;;;;;;;2.86;89.98;102960.72;1039394;28;20303;-75
2022/03/23 00:55:10;;;;;;;41.60;26.13;;;;;;;2.96;89.72;102957.28;1035826;28;20324;-76
2022/03/23 00:55:42;;;;;;;32.55;23.27;;;;;;;2.87;89.51;102963.25;1032271;28;20305;-76
2022/03/23 00:56:14;;;;;;;44.10;27.75;;;;;;;2.91;89.21;102954.16;1033072;28;20289;-76
2022/03/23 00:56:46;;;;;;;39.75;30.10;;;;;;;2.98;89.34;102955.38;1036116;28;20860;-75
2022/03/23 00:57:18;;;;;;;41.55;28.17;;;;;;;2.99;89.42;102950.94;1040342;28;20292;-75
2022/03/23 00:57:49;;;;;;;46.22;31.50;;;;;;;2.86;89.58;102952.84;1043872;28;20302;-76
2022/03/23 00:58:21;;;;;;;41.80;32.67;;;;;;;2.90;89.14;102957.75;1043395;28;20354;-75
2022/03/23 00:58:53;;;;;;;45.17;29.77;;;;;;;2.93;89.37;102951.41;1039381;28;20885;-76
2022/03/23 00:59:25;;;;;;;44.72;29.38;;;;;;;2.87;89.20;102951.88;1039236;28;20382;-75
2022/03/23 00:59:56;;;;;;;37.22;27.77;;;;;;;2.80;88.84;102954.13;1039890;28;20303;-75
2022/03/23 01:00:28;;;;;;;40.63;32.30;;;;;;;2.84;89.30;102955.59;1043934;28;20295;-75
2022/03/23 01:01:00;;;;;;;44.65;29.75;;;;;;;2.80;89.15;102948.88;1043679;28;20303;-75
2022/03/23 01:01:34;;;;;;;47.53;31.85;;;;;;;2.84;89.29;102958.22;1043353;28;20723;-76
2022/03/23 01:02:09;;;;;;;47.85;35.13;;;;;;;2.84;89.58;102954.75;1038698;28;20311;-75
2022/03/23 01:02:42;;;;;;;45.00;34.78;;;;;;;2.72;89.51;102959.09;1040581;28;20303;-75
2022/03/23 01:03:14;;;;;;;45.45;34.13;;;;;;;2.66;89.55;102957.75;1035386;28;20315;-75
2022/03/23 01:03:46;;;;;;;50.33;34.17;;;;;;;2.60;90.11;102960.00;1031878;28;20344;-75
2022/03/23 01:04:18;;;;;;;54.97;38.53;;;;;;;2.57;90.62;102955.81;1035278;28;20376;-75
2022/03/23 01:04:49;;;;;;;51.13;37.30;;;;;;;2.55;90.40;102960.34;1036112;28;20296;-76
2022/03/23 01:05:22;;;;;;;48.80;37.65;;;;;;;2.68;90.27;102955.84;1040073;28;20830;-75
2022/03/23 01:05:53;;;;;;;54.35;33.83;;;;;;;2.60;90.50;102952.97;1043450;28;20675;-75
2022/03/23 01:06:25;;;;;;;49.67;36.65;;;;;;;2.57;90.27;102954.97;1043678;28;20676;-76
2022/03/23 01:06:56;;;;;;;46.25;37.47;;;;;;;2.58;90.46;102948.75;1039893;28;20312;-75
2022/03/23 01:07:28;;;;;;;53.42;36.83;;;;;;;2.60;90.73;102950.31;1039233;28;20304;-76
2022/03/23 01:08:00;;;;;;;57.45;36.35;;;;;;;2.59;90.46;102950.44;1039328;28;20826;-76
2022/03/23 01:08:31;;;;;;;49.30;36.83;;;;;;;2.65;90.12;102957.88;1033296;28;20300;-76
2022/03/23 01:09:03;;;;;;;47.67;35.33;;;;;;;2.58;90.45;102954.88;1039726;28;20307;-75
2022/03/23 01:09:34;;;;;;;44.53;34.70;;;;;;;2.57;90.67;102950.56;1043413;28;20663;-75
2022/03/23 01:10:11;;;;;;;48.08;35.28;;;;;;;2.51;90.22;102945.75;1043718;28;20813;-76
2022/03/23 01:10:43;;;;;;;51.25;35.30;;;;;;;2.66;90.49;102949.88;1043224;28;20318;-75
2022/03/23 01:11:15;;;;;;;47.83;33.80;;;;;;;2.71;90.05;102947.72;1039438;28;20307;-75
2022/03/23 01:11:47;;;;;;;50.22;32.63;;;;;;;2.84;89.78;102946.84;1038638;28;20299;-75
2022/03/23 01:12:18;;;;;;;47.95;34.17;;;;;;;2.77;89.76;102947.31;1040225;28;20308;-76
2022/03/23 01:12:51;;;;;;;48.72;33.40;;;;;;;2.78;89.61;102956.88;1043102;28;20349;-75
2022/03/23 01:13:23;;;;;;;54.35;36.97;;;;;;;2.79;89.92;102949.81;1044018;28;20293;-75
2022/03/23 01:13:54;;;;;;;47.80;37.30;;;;;;;2.71;89.63;102945.09;1043826;28;20306;-75
2022/03/23 01:14:26;;;;;;;56.75;37.03;;;;;;;2.68;89.76;102950.59;1043611;28;20802;-76
2022/03/23 01:14:58;;;;;;;49.05;34.60;;;;;;;2.58;90.36;102954.88;1043863;28;20296;-76
2022/03/23 01:15:30;;;;;;;52.58;35.05;;;;;;;2.67;89.95;102946.28;1039427;28;20308;-75
2022/03/23 01:16:01;;;;;;;49.88;37.42;;;;;;;2.61;90.02;102945.91;1039278;28;20814;-75
2022/03/23 01:16:33;;;;;;;45.67;34.45;;;;;;;2.56;90.69;102954.13;1039505;28;20303;-76
2022/03/23 01:17:06;;;;;;;52.10;38.28;;;;;;;2.53;90.53;102951.72;1035711;28;20380;-76
2022/03/23 01:17:38;;;;;;;48.22;37.83;;;;;;;2.50;90.81;102953.75;1038507;28;20854;-76
2022/03/23 01:18:10;;;;;;;49.33;39.35;;;;;;;2.51;90.94;102950.16;1039226;28;20307;-75
2022/03/23 01:18:43;;;;;;;51.47;38.17;;;;;;;2.65;90.81;102953.47;1036145;28;20890;-76
2022/03/23 01:19:17;;;;;;;52.05;37.38;;;;;;;2.52;90.46;102947.44;1031578;28;20301;-75
2022/03/23 01:19:49;;;;;;;55.95;37.97;;;;;;;2.43;90.97;102953.34;1031194;28;20411;-75
2022/03/23 01:20:21;;;;;;;53.00;37.15;;;;;;;2.47;90.72;102949.56;1032372;28;20293;-76
2022/03/23 01:20:52;;;;;;;50.38;38.30;;;;;;;2.34;90.55;102948.75;1036273;28;20304;-75
2022/03/23 01:21:25;;;;;;;55.55;40.00;;;;;;;2.38;90.94;102951.03;1038914;28;20819;-76
2022/03/23 01:21:57;;;;;;;49.65;35.13;;;;;;;2.49;91.31;102947.66;1031005;28;20301;-76
2022/03/23 01:22:29;;;;;;;53.08;40.53;;;;;;;2.54;90.85;102945.53;1031488;28;20301;-75
2022/03/23 01:23:00;;;;;;;44.22;36.92;;;;;;;2.55;90.85;102952.47;1027059;28;21327;-76
2022/03/23 01:23:32;;;;;;;51.50;35.78;;;;;;;2.44;90.42;102949.75;1028506;28;21061;-76
2022/03/23 01:24:06;;;;;;;43.60;34.95;;;;;;;2.46;90.35;102940.78;1035381;28;20331;-75
2022/03/23 01:24:38;;;;;;;51.17;37.47;;;;;;;2.45;90.40;102940.91;1031870;28;20320;-75
2022/03/23 01:25:10;;;;;;;46.50;36.50;;;;;;;2.37;90.32;102946.72;1035998;28;20307;-75
2022/03/23 01:25:43;;;;;;;39.10;33.88;;;;;;;2.44;90.99;102945.31;1035217;28;20800;-76
2022/03/23 01:26:14;;;;;;;46.90;36.08;;;;;;;2.52;90.96;102947.44;1036758;28;20300;-75
2022/03/23 01:26:46;;;;;;;50.83;35.53;;;;;;;2.57;90.47;102949.72;1039025;28;20303;-75
2022/03/23 01:27:17;;;;;;;53.67;33.35;;;;;;;2.54;90.41;102945.53;1035891;28;20680;-76
2022/03/23 01:27:49;;;;;;;41.80;34.53;;;;;;;2.43;90.34;102934.94;1039351;28;20292;-75
2022/03/23 01:28:21;;;;;;;57.83;35.47;;;;;;;2.37;90.36;102944.09;1039701;28;20307;-75
2022/03/23 01:28:52;;;;;;;45.55;33.30;;;;;;;2.39;90.07;102944.00;1043420;28;20295;-75
2022/03/23 01:29:24;;;;;;;48.33;34.40;;;;;;;2.47;90.09;102944.28;1043669;28;20303;-76
2022/03/23 01:29:55;;;;;;;46.28;36.03;;;;;;;2.45;89.78;102946.16;1039026;28;20296;-76
2022/03/23 01:30:28;;;;;;;49.03;35.17;;;;;;;2.46;89.96;102937.31;1038936;28;20398;-75
2022/03/23 01:31:00;;;;;;;51.67;36.17;;;;;;;2.35;89.47;102939.91;1039920;28;20323;-76
2022/03/23 01:31:31;;;;;;;48.45;34.78;;;;;;;2.34;89.63;102939.06;1039256;28;20312;-75
2022/03/23 01:32:05;;;;;;;52.00;35.78;;;;;;;2.31;89.99;102943.72;1043095;28;20311;-76
2022/03/23 01:32:36;;;;;;;50.40;35.05;;;;;;;2.31;90.33;102939.28;1043228;28;20421;-75
2022/03/23 01:33:09;;;;;;;47.38;37.80;;;;;;;2.25;90.16;102941.53;1040186;28;20311;-76
2022/03/23 01:33:40;;;;;;;47.03;38.65;;;;;;;2.21;90.89;102940.91;1039175;28;20303;-75
2022/03/23 01:34:12;;;;;;;52.22;36.75;;;;;;;2.18;90.96;102944.56;1034438;28;20312;-76
2022/03/23 01:34:44;;;;;;;53.92;37.25;;;;;;;2.28;90.57;102943.94;1036030;28;20712;-75
2022/03/23 01:35:15;;;;;;;51.08;35.45;;;;;;;2.25;90.51;102944.16;1043264;28;20662;-76
2022/03/23 01:35:49;;;;;;;46.53;35.83;;;;;;;2.21;90.99;102940.06;1035883;28;20332;-76
2022/03/23 01:36:21;;;;;;;50.08;35.70;;;;;;;2.15;90.53;102946.59;1043336;28;20291;-75
2022/03/23 01:36:53;;;;;;;43.63;32.38;;;;;;;2.08;90.51;102948.81;1038440;28;20300;-75
2022/03/23 01:37:24;;;;;;;47.40;34.47;;;;;;;2.13;90.73;102936.19;1031280;28;20309;-76
2022/03/23 01:37:56;;;;;;;42.38;34.63;;;;;;;2.11;90.17;102943.34;1033671;28;20337;-76
2022/03/23 01:38:28;;;;;;;47.92;35.30;;;;;;;2.34;90.71;102941.69;1035791;28;20712;-76
2022/03/23 01:39:00;;;;;;;42.92;33.88;;;;;;;2.36;90.61;102947.69;1035794;28;20315;-76
2022/03/23 01:39:32;;;;;;;43.05;32.58;;;;;;;2.39;90.70;102950.09;1035594;28;20633;-76
2022/03/23 01:40:06;;;;;;;42.08;31.25;;;;;;;2.28;89.89;102946.56;1035412;28;20301;-76
2022/03/23 01:40:40;;;;;;;47.25;32.78;;;;;;;2.30;89.79;102944.66;1030110;28;20301;-75
2022/03/23 01:41:13;;;;;;;38.53;29.13;;;;;;;2.29;89.72;102943.00;1036259;28;20293;-76
2022/03/23 01:41:45;;;;;;;45.75;33.40;;;;;;;2.16;90.05;102941.22;1036469;28;20331;-76
2022/03/23 01:42:17;;;;;;;47.38;31.88;;;;;;;2.15;90.00;102954.47;1036637;28;20344;-75
2022/03/23 01:42:48;;;;;;;46.42;33.13;;;;;;;2.09;90.15;102939.97;1034581;28;20307;-75
2022/03/23 01:43:20;;;;;;;50.65;32.97;;;;;;;2.20;90.09;102944.50;1035548;28;20293;-75
2022/03/23 01:43:52;;;;;;;40.13;32.83;;;;;;;2.15;90.44;102944.78;1040143;28;20327;-76
2022/03/23 01:44:26;;;;;;;42.10;34.92;;;;;;;2.11;90.04;102947.75;1036164;28;20344;-75
2022/03/23 01:45:00;;;;;;;48.17;35.05;;;;;;;2.06;90.41;102950.72;1032129;28;20301;-75
2022/03/23 01:45:32;;;;;;;40.80;31.50;;;;;;;2.05;91.12;102954.31;1032099;28;20297;-75
2022/03/23 01:46:04;;;;;;;58.53;34.17;;;;;;;2.06;90.77;102950.72;1029177;28;20409;-76
2022/03/23 01:46:35;;;;;;;44.08;33.10;;;;;;;2.15;91.23;102943.97;1031892;28;20302;-76
2022/03/23 01:47:14;;;;;;;39.53;30.95;;;;;;;2.19;91.43;102950.66;1035402;28;20300;-76
2022/03/23 01:47:46;;;;;;;52.53;34.45;;;;;;;2.15;91.54;102943.97;1028732;28;20918;-75
2022/03/23 01:48:18;;;;;;;48.30;37.20;;;;;;;2.16;91.59;102943.84;1032285;28;20308;-76
2022/03/23 01:48:49;;;;;;;55.88;39.47;;;;;;;2.12;91.74;102944.19;1035456;28;20296;-75
2022/03/23 01:49:21;;;;;;;50.53;36.63;;;;;;;2.11;91.46;102947.75;1036575;28;20300;-75
2022/03/23 01:49:55;;;;;;;46.70;34.67;;;;;;;2.11;91.65;102948.59;1042657;28;20307;-75
2022/03/23 01:50:30;;;;;;;47.80;36.75;;;;;;;2.10;91.78;102946.91;1039454;28;20382;-76
2022/03/23 01:51:03;;;;;;;46.72;37.90;;;;;;;2.07;91.20;102951.56;1039301;28;20335;-75
2022/03/23 01:51:35;;;;;;;53.30;37.97;;;;;;;2.02;91.34;102946.63;1036399;28;20295;-75
2022/03/23 01:52:09;;;;;;;51.17;37.75;;;;;;;1.92;92.07;102950.88;1038892;28;20316;-75
2022/03/23 01:52:41;;;;;;;51.70;39.25;;;;;;;1.89;91.85;102948.44;1039155;28;20292;-75
2022/03/23 01:53:13;;;;;;;48.20;38.45;;;;;;;1.98;91.85;102952.22;1036035;28;20724;-76
2022/03/23 01:53:44;;;;;;;40.60;36.20;;;;;;;1.91;91.99;102946.53;1035749;28;20292;-75
2022/03/23 01:54:16;;;;;;;48.15;37.45;;;;;;;1.80;92.17;102949.91;1035045;28;20316;-75
2022/03/23 01:54:51;;;;;;;45.17;35.38;;;;;;;1.85;92.45;102949.59;1032191;28;20301;-76
2022/03/23 01:55:22;;;;;;;46.80;33.75;;;;;;;1.88;92.20;102954.63;1031848;28;20351;-75
2022/03/23 01:55:54;;;;;;;48.05;36.67;;;;;;;1.91;92.57;102949.16;1031622;28;20820;-75
2022/03/23 01:56:26;;;;;;;49.67;34.75;;;;;;;2.00;92.46;102940.66;1035652;28;20292;-75
2022/03/23 01:56:58;;;;;;;49.95;38.80;;;;;;;2.03;91.84;102950.09;1035818;28;20665;-76
2022/03/23 01:57:30;;;;;;;50.25;38.50;;;;;;;2.04;91.77;102943.91;1035726;28;20304;-76
2022/03/23 01:58:03;;;;;;;48.83;39.15;;;;;;;2.00;92.11;102950.31;1035394;28;20824;-76
2022/03/23 01:58:37;;;;;;;51.13;37.55;;;;;;;2.00;92.39;102945.91;1032307;28;20301;-76
2022/03/23 01:59:14;;;;;;;49.75;37.83;;;;;;;2.02;92.25;102946.63;1032869;28;20721;-75
2022/03/23 01:59:46;;;;;;;50.60;38.22;;;;;;;2.04;91.94;102946.53;1031035;28;20875;-76
2022/03/23 02:00:20;;;;;;;57.90;39.50;;;;;;;2.02;92.15;102941.38;1030927;28;20309;-75
2022/03/23 02:00:52;;;;;;;49.38;37.38;;;;;;;2.02;92.06;102943.16;1031246;28;20321;-76
2022/03/23 02:01:26;;;;;;;49.80;38.15;;;;;;;2.03;91.67;102945.69;1029896;28;20393;-75
2022/03/23 02:01:57;;;;;;;55.70;37.90;;;;;;;2.13;91.90;102940.59;1036040;28;20771;-75
2022/03/23 02:02:32;;;;;;;54.00;38.33;;;;;;;2.15;91.56;102936.91;1030790;28;20361;-75
2022/03/23 02:03:06;;;;;;;60.05;38.75;;;;;;;2.15;91.98;102944.78;1026881;28;20335;-75
2022/03/23 02:03:41;;;;;;;36.42;27.80;;;;;;;1.89;91.50;102944.97;1027988;28;20694;-75
2022/03/23 02:04:13;;;;;;;28.75;21.83;;;;;;;1.74;91.62;102939.84;1029440;28;20298;-76
2022/03/23 02:04:45;;;;;;;29.20;23.23;;;;;;;1.62;92.23;102939.84;1031229;28;20724;-75
2022/03/23 02:05:17;;;;;;;29.50;25.23;;;;;;;1.66;92.35;102938.72;1031056;28;20404;-75
2022/03/23 02:05:53;;;;;;;32.40;23.88;;;;;;;1.66;91.97;102942.19;1035367;28;20328;-75
2022/03/23 02:06:25;;;;;;;33.97;23.58;;;;;;;1.33;91.77;102934.81;1039186;28;20307;-76
2022/03/23 02:06:56;;;;;;;35.05;23.88;;;;;;;1.14;92.26;102934.38;1034097;28;20308;-76
2022/03/23 02:07:30;;;;;;;40.67;25.30;;;;;;;1.47;92.44;102929.47;1031993;28;20319;-76
2022/03/23 02:08:02;;;;;;;39.70;30.20;;;;;;;1.63;92.48;102941.53;1032909;28;20289;-75
2022/03/23 02:08:34;;;;;;;33.95;24.98;;;;;;;1.47;91.93;102939.97;1030818;28;20955;-76
2022/03/23 02:09:06;;;;;;;29.88;24.10;;;;;;;1.63;92.10;102946.78;1031828;28;20380;-75
2022/03/23 02:09:38;;;;;;;36.40;26.65;;;;;;;1.54;91.96;102938.59;1037687;28;20831;-75
2022/03/23 02:10:15;;;;;;;25.23;22.50;;;;;;;1.32;91.83;102940.16;1037823;28;20308;-76
2022/03/23 02:10:55;;;;;;;36.72;24.38;;;;;;;1.50;91.90;102937.13;1035207;28;20665;-75
2022/03/23 02:11:41;;;;;;;54.55;34.63;;;;;;;1.45;92.33;102935.78;1033624;28;20057;-76
2022/03/23 02:12:13;;;;;;;40.38;31.17;;;;;;;1.47;92.42;102937.34;1031198;28;20371;-76
2022/03/23 02:12:45;;;;;;;36.10;28.67;;;;;;;1.52;92.03;102932.59;1037525;28;20323;-76
2022/03/23 02:13:16;;;;;;;49.28;34.20;;;;;;;1.48;91.83;102932.94;1043542;28;20351;-76
2022/03/23 02:13:48;;;;;;;42.90;31.65;;;;;;;1.68;92.42;102939.44;1044138;28;20687;-76
2022/03/23 02:14:20;;;;;;;32.45;27.25;;;;;;;1.68;91.88;102939.44;1043075;28;20297;-75
2022/03/23 02:14:52;;;;;;;40.00;30.27;;;;;;;1.69;91.98;102931.44;1043270;28;20837;-76
2022/03/23 02:15:26;;;;;;;33.97;29.35;;;;;;;1.73;91.55;102932.06;1038842;28;20327;-75
2022/03/23 02:15:58;;;;;;;46.35;30.63;;;;;;;1.75;91.37;102936.28;1040108;28;20303;-75
2022/03/23 02:16:44;;;;;;;39.92;29.23;;;;;;;1.76;91.62;102931.84;1034909;28;20321;-75
2022/03/23 02:17:16;;;;;;;41.17;32.20;;;;;;;1.75;91.34;102936.28;1041898;28;20717;-75
2022/03/23 02:17:53;;;;;;;42.22;30.75;;;;;;;1.74;91.23;102939.00;1039150;28;20315;-76
2022/03/23 02:18:24;;;;;;;38.75;29.88;;;;;;;1.77;90.79;102925.66;1040386;28;20844;-75
2022/03/23 02:18:58;;;;;;;40.60;30.52;;;;;;;1.70;90.80;102930.50;1041463;28;20307;-76
2022/03/23 02:19:29;;;;;;;45.92;31.77;;;;;;;1.72;91.03;102930.41;1035367;28;20288;-75
2022/03/23 02:20:01;;;;;;;35.30;29.75;;;;;;;1.66;90.52;102928.19;1031477;28;20294;-75
2022/03/23 02:20:33;;;;;;;45.55;35.53;;;;;;;1.65;90.53;102930.00;1031403;28;20305;-75
2022/03/23 02:21:05;;;;;;;46.45;34.38;;;;;;;1.57;90.36;102931.44;1031941;28;20302;-75
2022/03/23 02:21:46;;;;;;;48.90;37.40;;;;;;;1.60;91.00;102928.59;1033168;28;20301;-75
2022/03/23 02:22:18;;;;;;;49.85;36.05;;;;;;;1.75;90.89;102927.56;1034252;28;20320;-75
2022/03/23 02:22:50;;;;;;;49.72;36.38;;;;;;;1.66;90.92;102929.03;1032675;28;20301;-75
2022/03/23 02:23:22;;;;;;;45.95;37.22;;;;;;;1.63;91.21;102925.75;1035075;28;20756;-75
2022/03/23 02:23:53;;;;;;;49.50;37.58;;;;;;;1.67;91.19;102932.50;1031435;28;20300;-75
2022/03/23 02:24:27;;;;;;;50.58;39.08;;;;;;;1.63;90.98;102931.00;1031621;28;20305;-75
2022/03/23 02:24:59;;;;;;;54.85;35.17;;;;;;;1.63;90.86;102931.84;1035141;28;20367;-75
2022/03/23 02:25:31;;;;;;;52.38;38.13;;;;;;;1.63;91.30;102931.00;1035157;28;20835;-75
2022/03/23 02:26:03;;;;;;;51.60;38.85;;;;;;;1.54;91.47;102927.25;1036407;28;20297;-75
2022/03/23 02:26:35;;;;;;;49.67;37.00;;;;;;;1.53;91.84;102925.56;1038967;28;20350;-75
2022/03/23 02:27:07;;;;;;;52.80;39.13;;;;;;;1.44;92.24;102927.06;1035813;28;20535;-75
2022/03/23 02:27:40;;;;;;;53.53;39.75;;;;;;;1.37;92.09;102931.06;1035939;28;22002;-75
2022/03/23 02:28:14;;;;;;;47.40;36.22;;;;;;;1.45;92.18;102926.09;1036599;28;20300;-75
2022/03/23 02:28:46;;;;;;;52.28;38.80;;;;;;;1.44;92.57;102927.06;1040963;28;20777;-75
2022/03/23 02:29:19;;;;;;;52.47;37.58;;;;;;;1.42;92.73;102930.72;1044128;28;20292;-75
2022/03/23 02:29:52;;;;;;;58.90;35.70;;;;;;;1.43;92.47;102935.88;1035715;28;20634;-75